createdAt,value
2022-11-01T00:02:15.962Z,10.18
2022-11-01T00:04:43.808Z,12.75
2022-11-01T00:07:11.555Z,11.05
2022-11-01T00:09:39.322Z,12.35
2022-11-01T00:12:07.054Z,12.15
2022-11-01T00:14:34.748Z,11.85
2022-11-01T00:17:02.374Z,12.65
2022-11-01T00:19:30.082Z,11.65
2022-11-01T00:21:57.746Z,14.60
2022-11-01T00:24:25.485Z,15.98
2022-11-01T00:26:53.046Z,15.48
2022-11-01T00:29:21.145Z,13.05
2022-11-01T00:31:49.182Z,13.85
2022-11-01T00:34:17.691Z,15.07
2022-11-01T00:36:45.427Z,10.25
2022-11-01T00:39:14.859Z,11.27
2022-11-01T00:41:43.918Z,10.68
2022-11-01T00:44:12.694Z,10.13
2022-11-01T00:46:40.463Z,12.40
2022-11-01T00:49:08.192Z,12.27
2022-11-01T00:51:35.914Z,10.70
2022-11-01T00:54:03.713Z,10.73
2022-11-01T00:56:31.499Z,10.32
2022-11-01T00:59:01.198Z,10.18
2022-11-01T01:01:29.068Z,9.02
2022-11-01T01:03:56.810Z,14.55
2022-11-01T01:06:24.470Z,10.25
2022-11-01T01:08:52.435Z,13.20
2022-11-01T01:11:20.159Z,11.55
2022-11-01T01:13:48.021Z,9.90
2022-11-01T01:16:15.724Z,13.57
2022-11-01T01:18:43.530Z,9.38
2022-11-01T01:21:11.394Z,12.50
2022-11-01T01:23:40.264Z,10.65
2022-11-01T01:26:10.216Z,12.32
2022-11-01T01:28:41.901Z,13.25
2022-11-01T01:31:14.170Z,9.32
2022-11-01T01:33:42.147Z,8.93
2022-11-01T01:36:10.119Z,9.50
2022-11-01T01:38:40.333Z,9.15
2022-11-01T01:41:26.524Z,12.90
2022-11-01T01:43:54.362Z,10.23
2022-11-01T01:46:23.064Z,8.63
2022-11-01T01:48:57.007Z,13.65
2022-11-01T01:51:27.808Z,9.02
2022-11-01T01:53:58.267Z,9.73
2022-11-01T01:56:37.415Z,11.07
2022-11-01T01:59:08.689Z,8.00
2022-11-01T02:01:42.839Z,12.45
2022-11-01T02:04:40.076Z,12.60
2022-11-01T02:07:08.681Z,12.30
2022-11-01T02:09:37.937Z,9.88
2022-11-01T02:12:06.666Z,12.43
2022-11-01T02:14:34.433Z,9.23
2022-11-01T02:17:08.696Z,11.23
2022-11-01T02:20:11.819Z,9.93
2022-11-01T02:23:02.469Z,10.98
2022-11-01T02:25:51.813Z,11.07
2022-11-01T02:28:25.376Z,10.52
2022-11-01T02:31:11.724Z,14.50
2022-11-01T02:33:49.987Z,11.43
2022-11-01T02:36:31.824Z,12.35
2022-11-01T02:39:10.133Z,12.18
2022-11-01T02:41:51.382Z,11.75
2022-11-01T02:44:24.652Z,10.05
2022-11-01T02:47:01.952Z,7.82
2022-11-01T02:49:46.465Z,9.55
2022-11-01T02:52:19.512Z,12.52
2022-11-01T02:54:57.683Z,11.00
2022-11-01T02:57:34.058Z,10.00
2022-11-01T03:00:20.297Z,16.73
2022-11-01T03:03:02.872Z,10.05
2022-11-01T03:05:39.779Z,11.55
2022-11-01T03:08:12.976Z,14.45
2022-11-01T03:10:57.077Z,16.48
2022-11-01T03:13:32.558Z,18.90
2022-11-01T03:16:17.427Z,17.88
2022-11-01T03:19:03.850Z,15.80
2022-11-01T03:21:39.983Z,28.88
2022-11-01T03:24:48.447Z,32.43
2022-11-01T03:29:58.458Z,36.05
2022-11-01T03:32:31.991Z,26.35
2022-11-01T03:35:02.968Z,26.27
2022-11-01T03:37:32.192Z,21.40
2022-11-01T03:40:04.660Z,14.55
2022-11-01T03:42:33.895Z,15.70
2022-11-01T03:45:07.543Z,15.85
2022-11-01T03:47:36.125Z,17.08
2022-11-01T03:50:25.092Z,16.63
2022-11-01T03:52:53.200Z,14.32
2022-11-01T03:55:22.217Z,16.33
2022-11-01T03:57:58.422Z,15.50
2022-11-01T04:00:32.561Z,17.65
2022-11-01T04:03:01.082Z,16.80
2022-11-01T04:05:31.583Z,14.30
2022-11-01T04:07:59.222Z,10.82
2022-11-01T04:10:29.238Z,10.73
2022-11-01T04:12:57.752Z,13.27
2022-11-01T04:15:45.904Z,11.77
2022-11-01T04:18:32.211Z,14.50
2022-11-01T04:21:04.006Z,11.35
2022-11-01T04:23:31.821Z,14.82
2022-11-01T04:25:59.546Z,10.10
2022-11-01T04:28:27.809Z,11.50
2022-11-01T04:30:55.373Z,9.18
2022-11-01T04:33:23.345Z,10.50
2022-11-01T04:35:51.360Z,11.60
2022-11-01T04:38:19.052Z,8.35
2022-11-01T04:40:46.913Z,11.02
2022-11-01T04:43:15.633Z,11.82
2022-11-01T04:45:43.449Z,9.57
2022-11-01T04:48:13.877Z,12.70
2022-11-01T04:50:42.329Z,11.82
2022-11-01T04:53:10.568Z,9.38
2022-11-01T04:55:38.159Z,14.07
2022-11-01T04:58:07.063Z,9.38
2022-11-01T05:00:34.942Z,13.80
2022-11-01T05:03:10.888Z,10.63
2022-11-01T05:05:39.322Z,9.68
2022-11-01T05:08:12.330Z,10.75
2022-11-01T05:10:42.577Z,8.88
2022-11-01T05:13:12.204Z,11.25
2022-11-01T05:15:53.523Z,12.70
2022-11-01T05:18:29.777Z,11.75
2022-11-01T05:20:57.405Z,12.15
2022-11-01T05:23:25.568Z,14.20
2022-11-01T05:25:53.105Z,12.25
2022-11-01T05:28:22.475Z,10.20
2022-11-01T05:30:50.017Z,12.82
2022-11-01T05:33:17.667Z,13.02
2022-11-01T05:35:45.351Z,10.77
2022-11-01T05:38:13.014Z,7.85
2022-11-01T05:40:40.695Z,10.25
2022-11-01T05:43:08.470Z,13.60
2022-11-01T05:45:36.435Z,14.43
2022-11-01T05:48:05.969Z,13.40
2022-11-01T05:50:33.837Z,10.25
2022-11-01T05:53:08.502Z,13.77
2022-11-01T05:55:36.875Z,12.43
2022-11-01T05:58:05.372Z,10.13
2022-11-01T06:00:34.128Z,11.18
2022-11-01T06:03:02.460Z,10.07
2022-11-01T06:05:31.268Z,12.70
2022-11-01T06:08:01.560Z,8.65
2022-11-01T06:10:29.256Z,10.23
2022-11-01T06:12:57.465Z,12.23
2022-11-01T06:15:25.414Z,10.93
2022-11-01T06:17:58.668Z,13.45
2022-11-01T06:20:28.550Z,11.88
2022-11-01T06:22:57.167Z,13.40
2022-11-01T06:25:26.096Z,12.15
2022-11-01T06:27:54.440Z,10.27
2022-11-01T06:30:22.062Z,13.05
2022-11-01T06:32:49.997Z,9.65
2022-11-01T06:35:18.064Z,11.10
2022-11-01T06:37:45.687Z,7.88
2022-11-01T06:40:13.414Z,9.80
2022-11-01T06:42:45.517Z,10.40
2022-11-01T06:45:15.156Z,7.45
2022-11-01T06:47:47.015Z,12.38
2022-11-01T06:50:14.726Z,8.73
2022-11-01T06:52:42.578Z,11.05
2022-11-01T06:55:10.194Z,8.75
2022-11-01T06:57:37.962Z,10.63
2022-11-01T07:00:06.749Z,8.63
2022-11-01T07:02:34.489Z,9.02
2022-11-01T07:05:03.527Z,11.32
2022-11-01T07:07:31.238Z,10.50
2022-11-01T07:09:58.938Z,8.02
2022-11-01T07:12:26.644Z,7.68
2022-11-01T07:14:54.271Z,8.88
2022-11-01T07:17:22.164Z,9.55
2022-11-01T07:19:49.847Z,8.98
2022-11-01T07:22:17.777Z,6.70
2022-11-01T07:24:46.114Z,7.20
2022-11-01T07:27:19.344Z,8.60
2022-11-01T07:29:48.202Z,7.00
2022-11-01T07:32:15.921Z,10.15
2022-11-01T07:34:44.313Z,9.43
2022-11-01T07:37:12.011Z,6.80
2022-11-01T07:39:39.820Z,6.68
2022-11-01T07:42:07.522Z,9.05
2022-11-01T07:44:35.124Z,8.60
2022-11-01T07:47:03.668Z,11.48
2022-11-01T07:49:31.341Z,10.60
2022-11-01T07:52:02.816Z,10.75
2022-11-01T07:54:30.856Z,7.40
2022-11-01T07:56:58.702Z,9.88
2022-11-01T07:59:26.303Z,10.25
2022-11-01T08:01:54.063Z,4.40
2022-11-01T08:04:22.206Z,8.15
2022-11-01T08:06:52.191Z,7.15
2022-11-01T08:09:22.186Z,7.10
2022-11-01T08:11:50.026Z,8.18
2022-11-01T08:14:17.802Z,5.78
2022-11-01T08:16:50.421Z,7.72
2022-11-01T08:19:18.071Z,8.93
2022-11-01T08:21:45.872Z,10.45
2022-11-01T08:24:13.427Z,6.63
2022-11-01T08:26:41.250Z,7.25
2022-11-01T08:29:08.894Z,8.60
2022-11-01T08:31:43.233Z,8.07
2022-11-01T08:34:15.902Z,6.05
2022-11-01T08:36:44.505Z,6.85
2022-11-01T08:39:12.563Z,7.35
2022-11-01T08:41:40.237Z,11.25
2022-11-01T08:44:07.941Z,6.45
2022-11-01T08:46:35.756Z,5.68
2022-11-01T08:49:03.618Z,7.30
2022-11-01T08:51:32.986Z,7.53
2022-11-01T08:54:00.667Z,6.22
2022-11-01T08:56:28.547Z,6.43
2022-11-01T08:58:56.215Z,7.60
2022-11-01T09:01:27.368Z,7.30
2022-11-01T09:03:59.585Z,8.15
2022-11-01T09:06:33.725Z,6.55
2022-11-01T09:09:04.891Z,10.13
2022-11-01T09:11:32.598Z,8.63
2022-11-01T09:14:01.417Z,10.55
2022-11-01T09:16:29.749Z,8.93
2022-11-01T09:19:01.737Z,9.98
2022-11-01T09:21:31.737Z,9.15
2022-11-01T09:24:00.072Z,7.63
2022-11-01T09:26:28.733Z,10.55
2022-11-01T09:28:58.696Z,10.02
2022-11-01T09:31:26.415Z,7.65
2022-11-01T09:33:56.522Z,7.65
2022-11-01T09:36:25.427Z,7.07
2022-11-01T09:38:53.133Z,8.25
2022-11-01T09:41:35.721Z,9.00
2022-11-01T09:44:06.779Z,13.02
2022-11-01T09:46:54.408Z,12.30
2022-11-01T09:49:28.802Z,16.38
2022-11-01T09:51:56.950Z,7.38
2022-11-01T09:54:25.937Z,7.25
2022-11-01T09:57:14.834Z,7.57
2022-11-01T10:00:00.626Z,12.35
2022-11-01T10:02:48.822Z,9.20
2022-11-01T10:05:40.142Z,7.65
2022-11-01T10:08:29.204Z,10.65
2022-11-01T10:11:12.119Z,7.60
2022-11-01T10:13:52.253Z,7.20
2022-11-01T10:16:49.380Z,7.03
2022-11-01T10:19:22.012Z,5.67
2022-11-01T10:21:51.295Z,5.68
2022-11-01T10:24:40.753Z,7.00
2022-11-01T10:27:26.942Z,10.48
2022-11-01T10:30:14.328Z,6.03
2022-11-01T10:35:33.121Z,13.32
2022-11-01T10:38:18.989Z,8.57
2022-11-01T10:41:04.081Z,9.05
2022-11-01T10:43:38.568Z,7.60
2022-11-01T10:46:10.279Z,6.90
2022-11-01T10:48:44.622Z,6.78
2022-11-01T10:51:15.523Z,12.30
2022-11-01T10:53:48.297Z,8.35
2022-11-01T10:56:25.178Z,10.52
2022-11-01T11:01:31.984Z,9.45
2022-11-01T11:04:03.774Z,9.32
2022-11-01T11:06:33.760Z,10.55
2022-11-01T11:09:03.046Z,11.80
2022-11-01T11:11:39.212Z,13.80
2022-11-01T11:14:10.026Z,11.88
2022-11-01T11:16:57.571Z,9.38
2022-11-01T11:19:39.727Z,9.00
2022-11-01T11:22:09.261Z,7.15
2022-11-01T11:24:39.489Z,9.68
2022-11-01T11:27:31.333Z,8.13
2022-11-01T11:30:03.073Z,9.30
2022-11-01T11:32:39.505Z,8.05
2022-11-01T11:35:17.886Z,6.50
2022-11-01T11:38:00.948Z,8.48
2022-11-01T11:40:50.035Z,6.60
2022-11-01T11:43:20.568Z,9.18
2022-11-01T11:46:15.617Z,7.93
2022-11-01T11:49:07.185Z,10.10
2022-11-01T11:51:38.076Z,7.80
2022-11-01T11:54:22.264Z,6.25
2022-11-01T11:57:09.232Z,6.05
2022-11-01T11:59:38.614Z,4.53
2022-11-01T12:02:34.681Z,6.82
2022-11-01T12:05:09.398Z,7.53
2022-11-01T12:07:50.247Z,6.88
2022-11-01T12:10:32.813Z,9.00
2022-11-01T12:13:02.031Z,7.68
2022-11-01T12:15:38.569Z,7.28
2022-11-01T12:18:17.536Z,10.98
2022-11-01T12:20:50.793Z,10.82
2022-11-01T12:23:36.132Z,6.90
2022-11-01T12:26:11.334Z,6.65
2022-11-01T12:28:48.349Z,8.02
2022-11-01T12:31:19.595Z,5.47
2022-11-01T12:34:30.024Z,5.13
2022-11-01T12:37:03.396Z,5.65
2022-11-01T12:39:40.558Z,6.53
2022-11-01T12:42:12.229Z,4.88
2022-11-01T12:44:48.531Z,5.43
2022-11-01T12:47:31.046Z,7.00
2022-11-01T12:50:09.844Z,7.43
2022-11-01T12:52:47.191Z,7.30
2022-11-01T12:55:29.189Z,8.45
2022-11-01T12:57:57.265Z,12.00
2022-11-01T13:00:31.534Z,13.45
2022-11-01T13:03:21.905Z,13.40
2022-11-01T13:05:49.691Z,9.15
2022-11-01T13:08:32.510Z,8.93
2022-11-01T13:11:13.892Z,5.50
2022-11-01T13:13:50.658Z,6.40
2022-11-01T13:19:18.591Z,6.20
2022-11-01T13:22:03.881Z,6.70
2022-11-01T13:24:54.726Z,5.22
2022-11-01T13:27:26.169Z,4.63
2022-11-01T13:29:59.720Z,5.50
2022-11-01T13:32:55.369Z,6.60
2022-11-01T13:35:35.010Z,7.05
2022-11-01T13:38:06.448Z,10.00
2022-11-01T13:40:57.310Z,7.93
2022-11-01T13:43:33.948Z,8.77
2022-11-01T13:46:13.911Z,7.13
2022-11-01T13:48:54.026Z,5.95
2022-11-01T13:51:27.655Z,5.93
2022-11-01T13:53:59.116Z,5.05
2022-11-01T13:56:42.630Z,8.85
2022-11-01T13:59:15.101Z,7.30
2022-11-01T14:01:42.944Z,4.97
2022-11-01T14:04:16.573Z,4.68
2022-11-01T14:06:51.605Z,5.68
2022-11-01T14:09:25.932Z,6.97
2022-11-01T14:12:09.850Z,5.20
2022-11-01T14:15:25.117Z,4.45
2022-11-01T14:17:56.076Z,4.28
2022-11-01T14:20:27.863Z,4.38
2022-11-01T14:22:57.117Z,5.07
2022-11-01T14:25:32.532Z,3.30
2022-11-01T14:28:21.170Z,4.28
2022-11-01T14:30:50.549Z,4.80
2022-11-01T14:33:22.622Z,5.75
2022-11-01T14:35:54.333Z,5.40
2022-11-01T14:38:32.229Z,8.52
2022-11-01T14:41:01.003Z,6.25
2022-11-01T14:43:34.848Z,6.10
2022-11-01T14:46:15.933Z,6.80
2022-11-01T14:48:52.859Z,6.63
2022-11-01T14:51:43.817Z,6.55
2022-11-01T14:54:35.413Z,6.53
2022-11-01T14:57:04.065Z,6.43
2022-11-01T14:59:33.277Z,9.25
2022-11-01T15:02:07.428Z,8.93
2022-11-01T15:04:44.423Z,7.93
2022-11-01T15:07:27.726Z,7.57
2022-11-01T15:10:14.544Z,7.00
2022-11-01T15:12:54.241Z,8.32
2022-11-01T15:15:30.464Z,6.65
2022-11-01T15:18:24.320Z,10.00
2022-11-01T15:20:56.365Z,3.70
2022-11-01T15:23:34.967Z,11.73
2022-11-01T15:26:13.395Z,6.28
2022-11-01T15:28:46.145Z,5.85
2022-11-01T15:31:13.864Z,4.25
2022-11-01T15:33:53.578Z,6.50
2022-11-01T15:36:37.075Z,2.95
2022-11-01T15:39:21.223Z,4.40
2022-11-01T15:41:50.131Z,3.55
2022-11-01T15:44:30.174Z,4.18
2022-11-01T15:47:01.444Z,3.42
2022-11-01T15:49:45.243Z,4.70
2022-11-01T15:52:23.113Z,6.55
2022-11-01T15:55:05.764Z,5.68
2022-11-01T15:57:49.508Z,4.13
2022-11-01T16:00:24.343Z,5.45
2022-11-01T16:03:05.435Z,5.65
2022-11-01T16:05:48.704Z,4.45
2022-11-01T16:08:42.497Z,5.93
2022-11-01T16:11:10.341Z,9.10
2022-11-01T16:13:38.444Z,12.48
2022-11-01T16:16:10.978Z,8.20
2022-11-01T16:18:42.930Z,6.85
2022-11-01T16:21:20.549Z,6.38
2022-11-01T16:24:14.078Z,5.28
2022-11-01T16:27:26.061Z,5.05
2022-11-01T16:29:54.187Z,7.05
2022-11-01T16:32:27.797Z,7.40
2022-11-01T16:34:55.849Z,5.80
2022-11-01T16:37:26.143Z,6.57
2022-11-01T16:39:54.677Z,6.47
2022-11-01T16:42:24.726Z,8.18
2022-11-01T16:44:55.740Z,6.85
2022-11-01T16:47:23.824Z,4.15
2022-11-01T16:49:55.192Z,9.15
2022-11-01T16:52:23.239Z,5.95
2022-11-01T16:54:51.584Z,7.82
2022-11-01T16:57:28.304Z,7.03
2022-11-01T16:59:56.270Z,6.72
2022-11-01T17:02:30.043Z,8.38
2022-11-01T17:05:19.133Z,7.97
2022-11-01T17:07:47.835Z,6.80
2022-11-01T17:10:22.455Z,4.85
2022-11-01T17:12:50.121Z,7.05
2022-11-01T17:15:19.577Z,8.88
2022-11-01T17:17:48.647Z,6.53
2022-11-01T17:20:23.927Z,6.60
2022-11-01T17:22:53.625Z,5.13
2022-11-01T17:25:25.644Z,7.20
2022-11-01T17:27:53.429Z,8.25
2022-11-01T17:30:21.330Z,10.85
2022-11-01T17:32:52.214Z,7.95
2022-11-01T17:35:22.845Z,8.30
2022-11-01T17:37:54.379Z,6.35
2022-11-01T17:40:25.442Z,6.07
2022-11-01T17:42:54.420Z,5.53
2022-11-01T17:45:22.980Z,5.47
2022-11-01T17:47:54.009Z,5.03
2022-11-01T17:50:22.275Z,8.05
2022-11-01T17:52:50.037Z,8.60
2022-11-01T17:55:18.207Z,8.00
2022-11-01T17:57:46.020Z,6.10
2022-11-01T18:00:14.081Z,6.07
2022-11-01T18:02:43.302Z,7.85
2022-11-01T18:05:11.973Z,5.65
2022-11-01T18:07:42.767Z,5.70
2022-11-01T18:10:18.108Z,6.13
2022-11-01T18:13:14.947Z,5.95
2022-11-01T18:15:59.356Z,4.45
2022-11-01T18:18:36.661Z,9.32
2022-11-01T18:21:49.624Z,9.10
2022-11-01T18:24:25.211Z,9.50
2022-11-01T18:26:52.990Z,9.52
2022-11-01T18:29:24.391Z,8.85
2022-11-01T18:32:34.743Z,8.95
2022-11-01T18:35:11.925Z,7.63
2022-11-01T18:38:06.034Z,6.47
2022-11-01T18:40:55.940Z,5.70
2022-11-01T18:43:25.974Z,6.82
2022-11-01T18:46:23.316Z,5.38
2022-11-01T18:48:44.585Z,5.78
2022-11-01T18:51:29.022Z,6.20
2022-11-01T18:54:08.693Z,5.40
2022-11-01T18:56:38.565Z,6.82
2022-11-01T18:59:19.846Z,6.70
2022-11-01T19:01:54.309Z,5.70
2022-11-01T19:04:28.097Z,8.70
2022-11-01T19:07:23.136Z,9.65
2022-11-01T19:09:56.454Z,11.57
2022-11-01T19:12:31.429Z,10.73
2022-11-01T19:15:04.435Z,9.80
2022-11-01T19:17:38.721Z,11.18
2022-11-01T19:20:33.762Z,9.77
2022-11-01T19:23:12.743Z,11.15
2022-11-01T19:25:43.641Z,10.20
2022-11-01T19:28:19.304Z,13.57
2022-11-01T19:30:50.679Z,15.25
2022-11-01T19:33:30.329Z,10.90
2022-11-01T19:35:58.582Z,14.85
2022-11-01T19:38:26.236Z,12.40
2022-11-01T19:40:55.316Z,8.40
2022-11-01T19:43:27.627Z,14.65
2022-11-01T19:45:58.002Z,22.25
2022-11-01T19:48:28.764Z,25.98
2022-11-01T19:50:56.792Z,19.20
2022-11-01T19:53:37.299Z,18.75
2022-11-01T19:56:07.749Z,15.98
2022-11-01T19:58:42.104Z,12.57
2022-11-01T20:01:24.197Z,10.43
2022-11-01T20:04:12.346Z,9.63
2022-11-01T20:07:02.559Z,7.38
2022-11-01T20:09:34.277Z,6.80
2022-11-01T20:12:02.012Z,9.55
2022-11-01T20:14:29.673Z,12.43
2022-11-01T20:16:57.452Z,13.93
2022-11-01T20:19:25.275Z,12.50
2022-11-01T20:21:53.308Z,9.82
2022-11-01T20:24:21.063Z,11.23
2022-11-01T20:26:53.283Z,8.68
2022-11-01T20:29:21.183Z,7.22
2022-11-01T20:31:50.007Z,9.07
2022-11-01T20:34:18.943Z,10.20
2022-11-01T20:37:08.141Z,12.57
2022-11-01T20:39:34.895Z,10.85
2022-11-01T20:42:02.808Z,11.25
2022-11-01T20:44:30.486Z,6.65
2022-11-01T20:46:58.075Z,9.98
2022-11-01T20:49:25.774Z,9.82
2022-11-01T20:51:53.454Z,8.35
2022-11-01T20:54:21.158Z,8.90
2022-11-01T20:56:49.083Z,8.43
2022-11-01T20:59:20.361Z,9.48
2022-11-01T21:01:49.396Z,7.72
2022-11-01T21:04:19.330Z,12.93
2022-11-01T21:06:47.993Z,13.30
2022-11-01T21:09:31.479Z,15.38
2022-11-01T21:11:59.485Z,17.70
2022-11-01T21:14:37.143Z,28.60
2022-11-01T21:17:16.854Z,31.05
2022-11-01T21:19:52.313Z,30.33
2022-11-01T21:22:21.840Z,30.00
2022-11-01T21:24:50.342Z,23.10
2022-11-01T21:27:24.009Z,28.38
2022-11-01T21:29:52.782Z,21.52
2022-11-01T21:32:25.647Z,19.98
2022-11-01T21:34:54.258Z,18.17
2022-11-01T21:37:23.076Z,17.67
2022-11-01T21:40:04.294Z,16.75
2022-11-01T21:42:39.237Z,17.17
2022-11-01T21:45:30.886Z,17.20
2022-11-01T21:48:02.856Z,17.20
2022-11-01T21:50:30.835Z,14.48
2022-11-01T21:52:58.494Z,13.45
2022-11-01T21:55:26.374Z,12.40
2022-11-01T21:57:54.008Z,13.52
2022-11-01T22:00:21.738Z,11.25
2022-11-01T22:02:49.441Z,14.65
2022-11-01T22:05:17.157Z,11.55
2022-11-01T22:07:44.848Z,12.65
2022-11-01T22:10:12.393Z,13.95
2022-11-01T22:12:40.252Z,17.50
2022-11-01T22:15:08.562Z,15.05
2022-11-01T22:17:36.264Z,11.13
2022-11-01T22:20:04.452Z,9.98
2022-11-01T22:22:32.141Z,10.32
2022-11-01T22:25:00.347Z,7.20
2022-11-01T22:27:28.069Z,10.80
2022-11-01T22:29:55.906Z,9.25
2022-11-01T22:32:24.126Z,13.05
2022-11-01T22:34:52.104Z,13.52
2022-11-01T22:37:19.855Z,12.40
2022-11-01T22:39:52.953Z,11.63
2022-11-01T22:42:22.036Z,12.70
2022-11-01T22:44:50.620Z,13.10
2022-11-01T22:47:29.756Z,10.52
2022-11-01T22:50:01.913Z,10.63
2022-11-01T22:52:37.007Z,8.68
2022-11-01T22:55:10.714Z,8.98
2022-11-01T22:57:41.503Z,7.18
2022-11-01T23:00:25.476Z,6.07
2022-11-01T23:03:19.084Z,7.78
2022-11-01T23:05:50.461Z,8.07
2022-11-01T23:08:29.578Z,9.55
2022-11-01T23:10:58.342Z,9.05
2022-11-01T23:13:49.212Z,9.48
2022-11-01T23:16:28.783Z,9.73
2022-11-01T23:19:08.923Z,9.32
2022-11-01T23:21:36.804Z,6.28
2022-11-01T23:24:06.891Z,6.28
2022-11-01T23:26:34.873Z,7.72
2022-11-01T23:29:02.934Z,7.07
2022-11-01T23:31:30.648Z,6.63
2022-11-01T23:33:58.663Z,6.72
2022-11-01T23:36:27.720Z,5.75
2022-11-01T23:39:12.533Z,7.47
2022-11-01T23:41:49.858Z,7.85
2022-11-01T23:44:24.091Z,7.07
2022-11-01T23:46:53.055Z,7.68
2022-11-01T23:49:24.035Z,6.15
2022-11-01T23:51:52.435Z,6.10
2022-11-01T23:54:30.373Z,5.53
2022-11-01T23:56:58.963Z,7.43
2022-11-01T23:59:26.933Z,8.48
